Time;durP1;ratioP1;P1;durP2;ratioP2;P2;SDS_P1;SDS_P2;PMS_P1;PMS_P2;Temp;Humidity;BMP_temperature;BMP_pressure;BME280_temperature;BME280_humidity;BME280_pressure;Samples;Min_cycle;Max_cycle;Signal;HPM_P1;HPM_P2
2023/08/27 00:02:24;;;;;;;1.5;1.4;;;;;;;16.81;100;933.5689;;;;
2023/08/27 00:04:52;;;;;;;2.2;1.4;;;;;;;16.71;100;933.5131;;;;
2023/08/27 00:07:17;;;;;;;1.3;1.1;;;;;;;16.82;100;933.3976;;;;
2023/08/27 00:09:42;;;;;;;1.5;1.2;;;;;;;16.84;100;933.4423;;;;
2023/08/27 00:12:12;;;;;;;1.4;1.3;;;;;;;16.74;100;933.4666;;;;
2023/08/27 00:14:37;;;;;;;4.2;1.6;;;;;;;16.66;100;933.5502;;;;
2023/08/27 00:17:04;;;;;;;1.5;1.3;;;;;;;16.62;100;933.5444;;;;
2023/08/27 00:19:28;;;;;;;3.1;1.5;;;;;;;16.63;100;933.4689;;;;
2023/08/27 00:21:53;;;;;;;2.2;1.4;;;;;;;16.78;100;933.3267;;;;
2023/08/27 00:24:18;;;;;;;1.3;1.2;;;;;;;16.57;100;933.3137;;;;
2023/08/27 00:26:44;;;;;;;1.5;1.2;;;;;;;16.68;100;933.2525;;;;
2023/08/27 00:29:10;;;;;;;1.7;1.1;;;;;;;16.76;100;933.1872;;;;
2023/08/27 00:31:36;;;;;;;3.9;1.4;;;;;;;16.84;100;933.1928;;;;
2023/08/27 00:34:01;;;;;;;3.8;1.3;;;;;;;16.88;100;933.1785;;;;
2023/08/27 00:36:31;;;;;;;2.8;1.2;;;;;;;16.96;100;933.0728;;;;
2023/08/27 00:38:56;;;;;;;2.2;1.5;;;;;;;16.88;100;933.0367;;;;
2023/08/27 00:41:21;;;;;;;1.6;1.3;;;;;;;16.85;100;932.9885;;;;
2023/08/27 00:43:46;;;;;;;1.4;1.3;;;;;;;16.77;100;932.9169;;;;
2023/08/27 00:46:16;;;;;;;4;1.4;;;;;;;16.71;100;932.9222;;;;
2023/08/27 00:48:41;;;;;;;2;1.3;;;;;;;16.85;100;932.8856;;;;
2023/08/27 00:51:07;;;;;;;4;1.5;;;;;;;16.74;100;932.8411;;;;
2023/08/27 00:53:32;;;;;;;1.5;1.4;;;;;;;16.73;100;932.9355;;;;
2023/08/27 00:56:00;;;;;;;1.3;1.2;;;;;;;16.66;100;932.9786;;;;
2023/08/27 00:58:25;;;;;;;1.5;1.1;;;;;;;16.65;100;932.9747;;;;
2023/08/27 01:00:51;;;;;;;3;1.6;;;;;;;16.83;100;932.952;;;;
2023/08/27 01:03:16;;;;;;;2.3;1.5;;;;;;;16.79;100;932.9727;;;;
2023/08/27 01:05:44;;;;;;;2.2;1.6;;;;;;;16.88;100;933.0264;;;;
2023/08/27 01:08:09;;;;;;;2.3;1.7;;;;;;;16.93;100;932.9528;;;;
2023/08/27 01:10:34;;;;;;;2;1.4;;;;;;;16.98;100;932.8069;;;;
2023/08/27 01:12:59;;;;;;;1.5;1.3;;;;;;;17.06;100;932.6339;;;;
2023/08/27 01:15:27;;;;;;;2.9;1.4;;;;;;;17.04;100;932.7656;;;;
2023/08/27 01:17:52;;;;;;;1.8;1.5;;;;;;;16.96;100;932.7245;;;;
2023/08/27 01:20:18;;;;;;;1.7;1.1;;;;;;;16.93;100;932.6844;;;;
2023/08/27 01:22:46;;;;;;;1.4;1.3;;;;;;;16.91;100;932.8102;;;;
2023/08/27 01:25:18;;;;;;;1.2;1.1;;;;;;;16.85;100;932.7198;;;;
2023/08/27 01:27:43;;;;;;;1.4;1.3;;;;;;;16.81;100;932.7736;;;;
2023/08/27 01:30:12;;;;;;;2.7;1.4;;;;;;;16.72;100;932.6166;;;;
2023/08/27 01:32:37;;;;;;;3.6;1.4;;;;;;;16.78;100;932.6498;;;;
2023/08/27 01:35:03;;;;;;;2.2;1.3;;;;;;;16.78;100;932.6016;;;;
2023/08/27 01:37:28;;;;;;;2.9;1.4;;;;;;;16.84;100;932.359;;;;
2023/08/27 01:39:53;;;;;;;2.7;1.3;;;;;;;16.62;100;932.1778;;;;
2023/08/27 01:42:19;;;;;;;2.5;1.4;;;;;;;16.75;100;932.287;;;;
2023/08/27 01:44:46;;;;;;;2.1;1.3;;;;;;;16.73;100;932.4411;;;;
2023/08/27 01:47:12;;;;;;;3.2;1.3;;;;;;;16.75;100;932.2194;;;;
2023/08/27 01:49:38;;;;;;;1.5;1.1;;;;;;;16.83;100;932.1429;;;;
2023/08/27 01:52:04;;;;;;;1;0.9;;;;;;;16.81;100;932.255;;;;
2023/08/27 01:54:28;;;;;;;1.6;1.2;;;;;;;16.78;100;932.2589;;;;
2023/08/27 01:56:53;;;;;;;1.3;1.2;;;;;;;16.91;100;932.2439;;;;
2023/08/27 01:59:18;;;;;;;1.5;1.2;;;;;;;17;100;932.3705;;;;
2023/08/27 02:01:44;;;;;;;2.2;1.2;;;;;;;17.03;100;932.403;;;;
2023/08/27 02:04:11;;;;;;;2.7;1.3;;;;;;;17.15;100;932.4088;;;;
2023/08/27 02:06:45;;;;;;;1.6;1.4;;;;;;;17.06;100;932.4377;;;;
2023/08/27 02:09:09;;;;;;;2.2;1.2;;;;;;;17.06;100;932.5028;;;;
2023/08/27 02:11:37;;;;;;;1.6;1.2;;;;;;;17.17;100;932.5733;;;;
2023/08/27 02:14:03;;;;;;;2.3;1.4;;;;;;;17.18;100;932.5778;;;;
2023/08/27 02:16:32;;;;;;;1.7;1.2;;;;;;;17.15;100;932.552;;;;
2023/08/27 02:18:55;;;;;;;1.6;1.2;;;;;;;17.21;100;932.5223;;;;
2023/08/27 02:21:28;;;;;;;3;1.2;;;;;;;17.25;100;932.449;;;;
2023/08/27 02:23:56;;;;;;;2.2;1.2;;;;;;;17.28;100;932.5025;;;;
2023/08/27 02:26:27;;;;;;;3.2;1.2;;;;;;;17.28;100;932.4549;;;;
2023/08/27 02:28:56;;;;;;;2.3;1.1;;;;;;;17.37;100;932.3325;;;;
2023/08/27 02:31:23;;;;;;;1.9;1.2;;;;;;;17.45;100;932.2858;;;;
2023/08/27 02:33:48;;;;;;;1.5;1.1;;;;;;;17.37;100;932.3858;;;;
2023/08/27 02:36:19;;;;;;;2.2;1.4;;;;;;;17.3;100;932.3618;;;;
2023/08/27 02:38:41;;;;;;;2;1.2;;;;;;;17.31;100;932.3367;;;;
2023/08/27 02:41:09;;;;;;;1.8;1.1;;;;;;;17.24;100;932.5421;;;;
2023/08/27 02:43:34;;;;;;;2.5;2.3;;;;;;;17.23;100;932.6631;;;;
2023/08/27 02:46:00;;;;;;;1.4;1.3;;;;;;;17.23;100;932.6533;;;;
2023/08/27 02:48:25;;;;;;;1.5;1.2;;;;;;;17.28;100;932.43;;;;
2023/08/27 02:50:56;;;;;;;4.4;1.4;;;;;;;17.38;100;932.5297;;;;
2023/08/27 02:53:22;;;;;;;3;1.2;;;;;;;17.42;100;932.4281;;;;
2023/08/27 02:55:47;;;;;;;1.4;1.2;;;;;;;17.44;100;932.3038;;;;
2023/08/27 02:58:14;;;;;;;2.7;1.1;;;;;;;17.38;100;932.2464;;;;
2023/08/27 03:00:40;;;;;;;1.5;1.3;;;;;;;17.43;100;932.2291;;;;
2023/08/27 03:03:11;;;;;;;1.9;1.1;;;;;;;17.46;100;932.2048;;;;
2023/08/27 03:05:36;;;;;;;2.4;1.2;;;;;;;17.33;100;932.1984;;;;
2023/08/27 03:08:02;;;;;;;4.1;1.3;;;;;;;17.12;100;932.2391;;;;
2023/08/27 03:10:26;;;;;;;3;1.3;;;;;;;17.16;100;932.1848;;;;
2023/08/27 03:12:57;;;;;;;1.9;1.2;;;;;;;17.28;100;932.2407;;;;
2023/08/27 03:15:22;;;;;;;1.3;1.2;;;;;;;17.38;100;932.1594;;;;
2023/08/27 03:17:47;;;;;;;1.3;1;;;;;;;17.4;100;932.2023;;;;
2023/08/27 03:20:16;;;;;;;1.2;1.1;;;;;;;17.37;100;932.1685;;;;
2023/08/27 03:22:41;;;;;;;1.3;1.2;;;;;;;17.38;100;932.2166;;;;
2023/08/27 03:25:14;;;;;;;2.6;1.2;;;;;;;17.44;100;932.0261;;;;
2023/08/27 03:27:42;;;;;;;2.4;1.3;;;;;;;17.39;100;932.0746;;;;
2023/08/27 03:30:08;;;;;;;2;1.2;;;;;;;17.34;100;932.0839;;;;
2023/08/27 03:32:33;;;;;;;1.9;1.2;;;;;;;17.3;100;931.9402;;;;
2023/08/27 03:34:58;;;;;;;1.7;1.2;;;;;;;17.32;100;931.9734;;;;
2023/08/27 03:37:26;;;;;;;2.4;1.2;;;;;;;17.35;100;931.9612;;;;
2023/08/27 03:39:51;;;;;;;1.2;1.1;;;;;;;17.45;100;931.9709;;;;
2023/08/27 03:42:18;;;;;;;2.4;1.1;;;;;;;17.46;100;932.1599;;;;
2023/08/27 03:44:44;;;;;;;2;1.3;;;;;;;17.44;100;932.2795;;;;
2023/08/27 03:47:10;;;;;;;2.5;1.2;;;;;;;17.42;100;931.9797;;;;
2023/08/27 03:49:36;;;;;;;2.2;1.3;;;;;;;17.44;100;931.8144;;;;
2023/08/27 03:52:01;;;;;;;2.1;1.4;;;;;;;17.36;100;932.1638;;;;
2023/08/27 03:54:27;;;;;;;1.3;1.2;;;;;;;17.34;100;932.2947;;;;
2023/08/27 03:56:51;;;;;;;1.9;1.1;;;;;;;17.31;100;931.8997;;;;
2023/08/27 03:59:17;;;;;;;1.6;1.3;;;;;;;17.32;100;932.0836;;;;
2023/08/27 04:02:30;;;;;;;2;1.3;;;;;;;17.23;100;932.44;;;;
2023/08/27 04:04:55;;;;;;;3.9;1.3;;;;;;;17.17;100;932.0809;;;;
2023/08/27 04:07:22;;;;;;;2.7;1.2;;;;;;;17.18;100;932.4675;;;;
2023/08/27 04:09:48;;;;;;;1.3;1.2;;;;;;;17.18;100;932.6518;;;;
2023/08/27 04:12:12;;;;;;;2;1.4;;;;;;;17.21;100;932.1417;;;;
2023/08/27 04:14:38;;;;;;;2.2;1.3;;;;;;;17.22;100;932.3976;;;;
2023/08/27 04:17:03;;;;;;;1.9;1.1;;;;;;;17.13;100;932.7287;;;;
2023/08/27 04:19:29;;;;;;;2.7;1.3;;;;;;;17.1;100;932.6168;;;;
2023/08/27 04:21:54;;;;;;;1.4;1.3;;;;;;;17.14;100;932.2836;;;;
2023/08/27 04:24:20;;;;;;;3;1.1;;;;;;;17.12;100;932.3726;;;;
2023/08/27 04:26:47;;;;;;;3;1.6;;;;;;;17.15;100;932.6887;;;;
2023/08/27 04:29:11;;;;;;;2.3;1.3;;;;;;;17.14;100;932.7452;;;;
2023/08/27 04:31:36;;;;;;;2.6;1.5;;;;;;;17.19;100;932.5718;;;;
2023/08/27 04:34:04;;;;;;;2.7;1.4;;;;;;;17.15;100;932.7573;;;;
2023/08/27 04:36:29;;;;;;;1.6;1.3;;;;;;;17.14;100;932.899;;;;
2023/08/27 04:38:57;;;;;;;2.1;1.5;;;;;;;17.2;100;932.9363;;;;
2023/08/27 04:41:23;;;;;;;2;1.4;;;;;;;17.15;100;933.1545;;;;
2023/08/27 04:43:55;;;;;;;3;1.2;;;;;;;17.16;100;933.2187;;;;
2023/08/27 04:46:18;;;;;;;1.2;1.1;;;;;;;17.16;100;933.1342;;;;
2023/08/27 04:48:46;;;;;;;1.2;1.1;;;;;;;17.12;100;933.1247;;;;
2023/08/27 04:51:14;;;;;;;2.1;1.2;;;;;;;17.19;100;933.0435;;;;
2023/08/27 04:53:44;;;;;;;1.7;1.2;;;;;;;17.19;100;933.053;;;;
2023/08/27 04:56:07;;;;;;;2.5;1.2;;;;;;;16.91;100;932.9011;;;;
2023/08/27 04:58:34;;;;;;;1.9;1.2;;;;;;;16.86;100;933.0905;;;;
2023/08/27 05:00:59;;;;;;;2;1.3;;;;;;;17.04;100;932.9827;;;;
2023/08/27 05:03:27;;;;;;;1.8;1.3;;;;;;;17.16;100;932.8777;;;;
2023/08/27 05:05:52;;;;;;;2.1;1.4;;;;;;;17.18;100;933.05;;;;
2023/08/27 05:08:22;;;;;;;2.1;1.3;;;;;;;17.21;100;933.0469;;;;
2023/08/27 05:10:51;;;;;;;2.1;1.2;;;;;;;17.25;100;932.8725;;;;
2023/08/27 05:13:17;;;;;;;2.2;1;;;;;;;17.37;100;933.0136;;;;
2023/08/27 05:15:42;;;;;;;2;1.1;;;;;;;17.48;100;932.8574;;;;
2023/08/27 05:18:09;;;;;;;1.4;1.1;;;;;;;17.53;100;932.8817;;;;
2023/08/27 05:20:34;;;;;;;1.2;1.1;;;;;;;17.56;100;932.8867;;;;
2023/08/27 05:22:59;;;;;;;2.2;1.3;;;;;;;17.65;100;932.9861;;;;
2023/08/27 05:25:26;;;;;;;2.3;1.3;;;;;;;17.69;100;933.1344;;;;
2023/08/27 05:27:51;;;;;;;1.8;1.2;;;;;;;17.63;100;933.2144;;;;
2023/08/27 05:30:20;;;;;;;2.9;1.4;;;;;;;17.59;100;933.2876;;;;
2023/08/27 05:32:48;;;;;;;2;1.3;;;;;;;17.57;100;933.3284;;;;
2023/08/27 05:35:13;;;;;;;1.4;1.1;;;;;;;17.6;100;933.4524;;;;
2023/08/27 05:37:40;;;;;;;1.8;1.3;;;;;;;17.66;100;933.315;;;;
2023/08/27 05:40:05;;;;;;;1.5;1.1;;;;;;;17.6;100;933.2888;;;;
2023/08/27 05:42:32;;;;;;;2.3;1;;;;;;;17.68;100;933.3753;;;;
2023/08/27 05:44:57;;;;;;;1.2;1.1;;;;;;;17.7;100;933.2483;;;;
2023/08/27 05:47:24;;;;;;;2.6;1.1;;;;;;;17.67;100;933.2126;;;;
2023/08/27 05:49:49;;;;;;;1.5;1.1;;;;;;;17.66;100;933.2458;;;;
2023/08/27 05:52:16;;;;;;;1.5;1.2;;;;;;;17.56;100;933.4155;;;;
2023/08/27 05:54:41;;;;;;;2.6;1.3;;;;;;;17.6;100;933.4556;;;;
2023/08/27 05:57:08;;;;;;;1.8;1.2;;;;;;;17.63;100;933.5154;;;;
2023/08/27 05:59:34;;;;;;;3.6;1.4;;;;;;;17.56;100;933.5573;;;;
2023/08/27 06:02:01;;;;;;;1.8;1.3;;;;;;;17.57;100;933.4314;;;;
2023/08/27 06:04:26;;;;;;;2.5;1.4;;;;;;;17.58;100;933.2985;;;;
2023/08/27 06:06:53;;;;;;;1.7;1.3;;;;;;;17.58;100;933.1509;;;;
2023/08/27 06:09:18;;;;;;;2.1;1.2;;;;;;;17.5;100;933.1448;;;;
2023/08/27 06:11:47;;;;;;;1.7;1.1;;;;;;;17.55;100;933.1848;;;;
2023/08/27 06:14:11;;;;;;;1.1;1;;;;;;;17.67;100;933.2747;;;;
2023/08/27 06:16:37;;;;;;;1.3;1.2;;;;;;;17.72;100;933.2598;;;;
2023/08/27 06:19:02;;;;;;;1.2;1;;;;;;;17.53;100;933.4364;;;;
2023/08/27 06:21:29;;;;;;;2.2;1.3;;;;;;;17.52;100;933.5114;;;;
2023/08/27 06:23:54;;;;;;;1.8;1.2;;;;;;;17.6;100;933.5128;;;;
2023/08/27 06:26:25;;;;;;;2.7;1.2;;;;;;;17.65;100;933.5497;;;;
2023/08/27 06:28:57;;;;;;;2.8;1.2;;;;;;;17.74;100;933.5872;;;;
2023/08/27 06:31:21;;;;;;;1.3;1.1;;;;;;;17.78;100;933.4836;;;;
2023/08/27 06:33:47;;;;;;;1.8;1.2;;;;;;;17.81;100;933.4042;;;;
2023/08/27 06:36:12;;;;;;;2.7;1.3;;;;;;;17.91;100;933.3558;;;;
2023/08/27 06:38:38;;;;;;;2.4;1.2;;;;;;;17.96;100;933.3376;;;;
2023/08/27 06:41:03;;;;;;;1.4;1.2;;;;;;;18.05;100;933.1905;;;;
2023/08/27 06:43:31;;;;;;;1.1;1;;;;;;;18.16;100;933.0867;;;;
2023/08/27 06:45:57;;;;;;;2.6;1.4;;;;;;;18.21;100;932.9642;;;;
2023/08/27 06:48:22;;;;;;;2.5;2.3;;;;;;;18.19;100;933.055;;;;
2023/08/27 06:50:48;;;;;;;2.6;1.7;;;;;;;18.23;100;933.1616;;;;
2023/08/27 06:53:13;;;;;;;1.8;1.2;;;;;;;18.33;100;933.241;;;;
2023/08/27 06:55:39;;;;;;;1.2;1;;;;;;;18.3;99.53613;933.2699;;;;
2023/08/27 06:58:04;;;;;;;1.9;1.2;;;;;;;18.29;99.26465;933.2703;;;;
2023/08/27 07:00:31;;;;;;;2.5;1.4;;;;;;;18.34;98.39355;933.2883;;;;
2023/08/27 07:02:55;;;;;;;1.7;1.4;;;;;;;18.07;95.73242;933.4178;;;;
2023/08/27 07:05:23;;;;;;;1;1;;;;;;;18.08;97.76758;933.4312;;;;
2023/08/27 07:07:47;;;;;;;2.6;1.4;;;;;;;18.09;99.80273;933.4061;;;;
2023/08/27 07:10:13;;;;;;;2.3;1.5;;;;;;;18.14;100;933.3242;;;;
2023/08/27 07:12:38;;;;;;;3.3;1.3;;;;;;;18.24;99.13867;933.3337;;;;
2023/08/27 07:15:06;;;;;;;1.9;1.2;;;;;;;18.37;98.43652;933.4509;;;;
2023/08/27 07:17:32;;;;;;;1.2;1.1;;;;;;;18.03;96.52637;933.4035;;;;
2023/08/27 07:20:01;;;;;;;3.3;1.2;;;;;;;18.08;97.97461;933.4539;;;;
2023/08/27 07:22:26;;;;;;;1.6;1.1;;;;;;;18.1;96.05273;933.5139;;;;
2023/08/27 07:24:52;;;;;;;2.6;1.3;;;;;;;17.67;95.58594;933.5259;;;;
2023/08/27 07:27:18;;;;;;;1.8;1.1;;;;;;;17.82;95.57324;933.4258;;;;
2023/08/27 07:29:43;;;;;;;1.2;1.1;;;;;;;17.88;92.51953;933.3221;;;;
2023/08/27 07:32:08;;;;;;;1.9;1;;;;;;;18.19;93.70117;933.2841;;;;
2023/08/27 07:34:34;;;;;;;1.4;1.1;;;;;;;18.34;92.18652;933.26;;;;
2023/08/27 07:37:03;;;;;;;0.9;0.8;;;;;;;18.25;90.18262;933.2311;;;;
2023/08/27 07:39:31;;;;;;;1.2;1;;;;;;;18.47;88.75195;933.2927;;;;
2023/08/27 07:41:56;;;;;;;2;1.1;;;;;;;18.68;89.19922;933.2364;;;;
2023/08/27 07:44:21;;;;;;;1.5;1;;;;;;;19.17;90.24121;933.2679;;;;
2023/08/27 07:46:50;;;;;;;1.1;1;;;;;;;19.16;88.34082;933.3789;;;;
2023/08/27 07:49:15;;;;;;;1.8;1;;;;;;;19.42;87.96191;933.3684;;;;
2023/08/27 07:51:42;;;;;;;1;0.9;;;;;;;19.57;86.66406;933.3109;;;;
2023/08/27 07:54:07;;;;;;;1;0.9;;;;;;;19.79;84.31543;933.2659;;;;
2023/08/27 07:56:35;;;;;;;1.9;1.1;;;;;;;20.02;84.15039;933.2542;;;;
2023/08/27 07:59:00;;;;;;;2.4;0.9;;;;;;;20.2;85.30566;933.1347;;;;
2023/08/27 08:01:29;;;;;;;1.2;0.9;;;;;;;19.6;77.47168;933.1879;;;;
2023/08/27 08:03:59;;;;;;;1.5;1;;;;;;;19.13;78.98438;933.0973;;;;
2023/08/27 08:06:25;;;;;;;0.9;0.9;;;;;;;18.83;83.07422;933.0676;;;;
2023/08/27 08:08:51;;;;;;;1.5;1;;;;;;;19.47;82.13477;933.0876;;;;
2023/08/27 08:11:17;;;;;;;0.8;0.8;;;;;;;19.37;79.48242;933.1415;;;;
2023/08/27 08:13:43;;;;;;;1.5;1;;;;;;;19.38;83.30469;933.0962;;;;
2023/08/27 08:16:07;;;;;;;1.8;1;;;;;;;19.26;81.09375;933.0061;;;;
2023/08/27 08:18:35;;;;;;;1.1;1;;;;;;;19.68;82.51172;932.9391;;;;
2023/08/27 08:21:00;;;;;;;1.6;1;;;;;;;19.78;81.6084;933.0536;;;;
2023/08/27 08:23:28;;;;;;;2.3;1.2;;;;;;;19.85;84.5127;933.1211;;;;
2023/08/27 08:25:53;;;;;;;1.6;1;;;;;;;20.14;81.14844;933.0522;;;;
2023/08/27 08:28:21;;;;;;;1.5;1;;;;;;;20.16;76.22754;932.952;;;;
2023/08/27 08:30:45;;;;;;;1.3;1.1;;;;;;;20.07;79.24609;933.1113;;;;
2023/08/27 08:33:12;;;;;;;1.2;1.1;;;;;;;20.09;78.24609;933.108;;;;
2023/08/27 08:35:39;;;;;;;0.9;0.9;;;;;;;19.79;79.88379;933.1017;;;;
2023/08/27 08:38:04;;;;;;;1.2;1.1;;;;;;;19.83;77.89844;933.1047;;;;
2023/08/27 08:40:29;;;;;;;1.4;1;;;;;;;19.84;81.31543;933.1561;;;;
2023/08/27 08:42:57;;;;;;;3.4;1.2;;;;;;;19.96;81.94531;933.2006;;;;
2023/08/27 08:45:22;;;;;;;1.5;1.1;;;;;;;19.62;79.16504;933.1412;;;;
2023/08/27 08:47:52;;;;;;;1.5;1.1;;;;;;;19.57;82.28125;933.1219;;;;
2023/08/27 08:50:16;;;;;;;1.7;1;;;;;;;19.43;79.20117;933.0625;;;;
2023/08/27 08:52:44;;;;;;;2.1;1;;;;;;;19.41;80.6084;933.1007;;;;
2023/08/27 08:55:10;;;;;;;1.1;1;;;;;;;19.44;80.50781;933.1074;;;;
2023/08/27 08:57:36;;;;;;;1;0.9;;;;;;;19.47;81.63379;933.1208;;;;
2023/08/27 09:00:01;;;;;;;2.2;1.2;;;;;;;19.48;82.56543;933.043;;;;
2023/08/27 09:02:26;;;;;;;1.2;1.1;;;;;;;19.4;81.50391;933.0988;;;;
2023/08/27 09:04:51;;;;;;;3.4;1.2;;;;;;;19.36;84.01367;933.1481;;;;
2023/08/27 09:07:16;;;;;;;1.2;1.1;;;;;;;19.47;84.12695;933.0803;;;;
2023/08/27 09:09:47;;;;;;;1.9;1.1;;;;;;;19.56;85.55469;933.1205;;;;
2023/08/27 09:12:12;;;;;;;2.1;1.2;;;;;;;19.55;86.88184;933.1516;;;;
2023/08/27 09:14:38;;;;;;;1.2;1.1;;;;;;;19.41;86.3291;933.1951;;;;
2023/08/27 09:17:04;;;;;;;1.5;1;;;;;;;19.35;86.5498;933.2247;;;;
2023/08/27 09:19:28;;;;;;;1.1;0.9;;;;;;;19.26;85.56543;933.1823;;;;
2023/08/27 09:21:55;;;;;;;1.3;1.1;;;;;;;18.99;86.03613;933.1853;;;;
2023/08/27 09:24:20;;;;;;;1.2;1.1;;;;;;;19.09;86.65137;933.2026;;;;
2023/08/27 09:26:46;;;;;;;1.2;1;;;;;;;19.04;87.75879;933.2195;;;;
2023/08/27 09:29:11;;;;;;;2.5;1.1;;;;;;;19.17;88.27246;933.1721;;;;
2023/08/27 09:31:36;;;;;;;2;1.2;;;;;;;19.21;86.41797;933.1101;;;;
2023/08/27 09:34:03;;;;;;;1;0.9;;;;;;;19.23;86.96973;933.1623;;;;
2023/08/27 09:36:27;;;;;;;1.2;1.1;;;;;;;19.2;88.12695;933.2009;;;;
2023/08/27 09:38:53;;;;;;;1.5;1.1;;;;;;;19.31;89.62988;933.1831;;;;
2023/08/27 09:41:18;;;;;;;1.3;1;;;;;;;19.4;90.55664;933.1664;;;;
2023/08/27 09:43:43;;;;;;;1.5;1.2;;;;;;;19.25;91.0166;933.134;;;;
2023/08/27 09:46:12;;;;;;;1.6;1.3;;;;;;;19.24;91.75781;933.2468;;;;
2023/08/27 09:48:36;;;;;;;1.6;1.2;;;;;;;19.19;92.17773;933.3175;;;;
2023/08/27 09:51:03;;;;;;;1.4;1.3;;;;;;;18.97;91.89941;933.207;;;;
2023/08/27 09:53:28;;;;;;;1.7;1.2;;;;;;;18.95;92.68555;933.1972;;;;
2023/08/27 09:55:55;;;;;;;1.8;1.1;;;;;;;18.99;90.86719;933.1055;;;;
2023/08/27 09:58:20;;;;;;;1.6;1.1;;;;;;;19.07;90.05957;933.1597;;;;
2023/08/27 10:00:48;;;;;;;1.1;1;;;;;;;19.06;88.67188;933.177;;;;
2023/08/27 10:03:12;;;;;;;1.2;1.1;;;;;;;18.94;89.26367;933.103;;;;
2023/08/27 10:05:43;;;;;;;1.1;1;;;;;;;19.02;88.82617;933.0273;;;;
2023/08/27 10:08:07;;;;;;;1.6;1.1;;;;;;;19.05;88.10742;933.0483;;;;
2023/08/27 10:10:36;;;;;;;1.5;1;;;;;;;19.19;85.66992;933.1237;;;;
2023/08/27 10:13:00;;;;;;;1.6;1.2;;;;;;;19.23;85.69824;933.1116;;;;
2023/08/27 10:15:25;;;;;;;2.5;1.1;;;;;;;19.25;88.20801;933.1511;;;;
2023/08/27 10:17:53;;;;;;;1.9;1.3;;;;;;;19.13;86.19238;933.0488;;;;
2023/08/27 10:20:17;;;;;;;2;1.3;;;;;;;18.94;86.92383;933.1021;;;;
2023/08/27 10:22:48;;;;;;;2.1;1.1;;;;;;;18.91;87.69824;933.099;;;;
2023/08/27 10:25:15;;;;;;;1.8;1.3;;;;;;;18.92;89.64355;933.0906;;;;
2023/08/27 10:27:40;;;;;;;1.3;1.1;;;;;;;19.13;89.9541;933.1554;;;;
2023/08/27 10:30:09;;;;;;;1.3;1.1;;;;;;;19.19;91.35059;933.2126;;;;
2023/08/27 10:32:33;;;;;;;1.5;1.1;;;;;;;19.24;91.88867;933.2773;;;;
2023/08/27 10:34:59;;;;;;;2.1;1.3;;;;;;;19.31;91.27246;933.3082;;;;
2023/08/27 10:37:24;;;;;;;2;1.1;;;;;;;19.3;89.66309;933.3035;;;;
2023/08/27 10:39:49;;;;;;;1.5;1.1;;;;;;;19.26;89.30469;933.3405;;;;
2023/08/27 10:42:14;;;;;;;1.9;1.5;;;;;;;19.25;87.68359;933.3431;;;;
2023/08/27 10:44:39;;;;;;;1.7;1.3;;;;;;;18.77;89.83594;933.3409;;;;
2023/08/27 10:47:04;;;;;;;2;1.4;;;;;;;18.72;89.52246;933.3965;;;;
2023/08/27 10:49:31;;;;;;;5.1;1.8;;;;;;;18.95;89.34863;933.4414;;;;
2023/08/27 10:51:56;;;;;;;2;1.4;;;;;;;19.07;91.10547;933.5317;;;;
2023/08/27 10:54:21;;;;;;;4.2;1.9;;;;;;;19.07;92.07324;933.4613;;;;
2023/08/27 10:56:47;;;;;;;2.4;1.4;;;;;;;19.12;91.20996;933.498;;;;
2023/08/27 10:59:13;;;;;;;1.2;0.8;;;;;;;18.75;87.96875;933.4763;;;;
2023/08/27 11:01:38;;;;;;;1.2;1;;;;;;;18.55;89.19629;933.5229;;;;
2023/08/27 11:04:06;;;;;;;1;0.9;;;;;;;18.39;89.4541;933.5269;;;;
2023/08/27 11:06:31;;;;;;;1.8;1;;;;;;;18.2;92.08789;933.6021;;;;
2023/08/27 11:08:57;;;;;;;1.1;0.9;;;;;;;18.24;93.7832;933.6238;;;;
2023/08/27 11:11:22;;;;;;;1.2;1.1;;;;;;;18.2;93.37793;933.6312;;;;
2023/08/27 11:13:47;;;;;;;1.5;0.9;;;;;;;18.26;94.98145;933.6613;;;;
2023/08/27 11:16:13;;;;;;;2.1;1.1;;;;;;;18.34;94.9082;933.6436;;;;
2023/08/27 11:18:39;;;;;;;1;0.9;;;;;;;18.28;93.3584;933.5422;;;;
2023/08/27 11:21:04;;;;;;;1.2;0.8;;;;;;;18.01;90.79395;933.5328;;;;
2023/08/27 11:23:32;;;;;;;1.4;0.9;;;;;;;17.67;93.96191;933.5694;;;;
2023/08/27 11:25:57;;;;;;;1.8;1;;;;;;;17.61;95.09863;933.5188;;;;
2023/08/27 11:28:24;;;;;;;1.1;1;;;;;;;17.61;94.6582;933.4472;;;;
2023/08/27 11:30:49;;;;;;;0.9;0.9;;;;;;;17.53;94.26855;933.4316;;;;
2023/08/27 11:33:21;;;;;;;1.6;0.9;;;;;;;17.59;94.21094;933.4567;;;;
2023/08/27 11:35:40;;;;;;;1.1;1;;;;;;;17.71;94.79492;933.5524;;;;
2023/08/27 11:38:10;;;;;;;1.4;1;;;;;;;17.46;93.82422;933.5195;;;;
2023/08/27 11:40:34;;;;;;;1.7;1.1;;;;;;;17.41;94.71973;933.6114;;;;
2023/08/27 11:43:00;;;;;;;1.1;0.9;;;;;;;17.49;95.48926;933.6716;;;;
2023/08/27 11:45:25;;;;;;;1.2;0.8;;;;;;;17.64;95.2207;933.673;;;;
2023/08/27 11:47:50;;;;;;;2.1;0.7;;;;;;;17.56;94.2168;933.7456;;;;
2023/08/27 11:50:15;;;;;;;1.8;0.9;;;;;;;17.54;94.5498;933.7557;;;;
2023/08/27 11:52:43;;;;;;;1.2;0.8;;;;;;;17.68;95.24219;933.6972;;;;
2023/08/27 11:55:09;;;;;;;0.6;0.6;;;;;;;17.62;96.03906;933.6752;;;;
2023/08/27 11:57:37;;;;;;;0.4;0.4;;;;;;;17.54;94.21289;933.61;;;;
2023/08/27 12:00:03;;;;;;;0.7;0.5;;;;;;;17.71;95.1084;933.6499;;;;
2023/08/27 12:02:28;;;;;;;1;0.6;;;;;;;17.58;94.1416;933.7708;;;;
2023/08/27 12:04:54;;;;;;;0.6;0.6;;;;;;;17.39;94.40039;933.8388;;;;
2023/08/27 12:07:19;;;;;;;1.4;0.6;;;;;;;17.43;95.78809;933.963;;;;
2023/08/27 12:09:47;;;;;;;1.2;0.6;;;;;;;17.22;96.43848;934.0228;;;;
2023/08/27 12:12:12;;;;;;;0.8;0.6;;;;;;;17.37;97.14551;933.9745;;;;
2023/08/27 12:14:39;;;;;;;0.8;0.5;;;;;;;17.22;96.55469;933.9882;;;;
2023/08/27 12:17:07;;;;;;;0.7;0.6;;;;;;;17.38;97.19531;934.0708;;;;
2023/08/27 12:19:29;;;;;;;1.4;0.6;;;;;;;17.38;97.32129;934.0653;;;;
2023/08/27 12:21:57;;;;;;;1;0.6;;;;;;;17.33;96.53418;934.1418;;;;
2023/08/27 12:24:23;;;;;;;0.5;0.5;;;;;;;17.34;97.30176;934.1312;;;;
2023/08/27 12:26:48;;;;;;;0.9;0.5;;;;;;;17.41;97.62891;934.0726;;;;
2023/08/27 12:29:13;;;;;;;1;0.6;;;;;;;17.55;96.96289;934.0784;;;;
2023/08/27 12:31:39;;;;;;;0.8;0.6;;;;;;;17.62;95.01953;934.0889;;;;
2023/08/27 12:34:04;;;;;;;0.9;0.6;;;;;;;17.69;93.38672;934.0046;;;;
2023/08/27 12:36:32;;;;;;;1.8;0.7;;;;;;;17.67;94.82031;934.0283;;;;
2023/08/27 12:38:57;;;;;;;0.9;0.6;;;;;;;17.75;94.16504;933.9752;;;;
2023/08/27 12:41:23;;;;;;;0.7;0.5;;;;;;;17.75;93.23633;933.9227;;;;
2023/08/27 12:43:52;;;;;;;1.1;0.7;;;;;;;17.85;93.07129;934.0098;;;;
2023/08/27 12:46:20;;;;;;;0.9;0.6;;;;;;;17.74;92.1543;933.948;;;;
2023/08/27 12:48:45;;;;;;;1.3;0.6;;;;;;;17.63;91.91113;933.8569;;;;
2023/08/27 12:51:12;;;;;;;1;0.8;;;;;;;17.78;91.69727;933.823;;;;
2023/08/27 12:53:37;;;;;;;1;0.9;;;;;;;17.81;91.85449;933.8069;;;;
2023/08/27 12:56:03;;;;;;;1.2;0.7;;;;;;;17.83;91.52344;933.8218;;;;
2023/08/27 12:58:28;;;;;;;2;0.5;;;;;;;17.82;90.96387;933.7784;;;;
2023/08/27 13:00:54;;;;;;;1;0.5;;;;;;;17.8;91.22754;933.7417;;;;
2023/08/27 13:03:19;;;;;;;1.3;0.7;;;;;;;17.88;92.24121;933.8173;;;;
2023/08/27 13:05:46;;;;;;;1.4;0.6;;;;;;;18.04;92.25391;933.7989;;;;
2023/08/27 13:08:11;;;;;;;1;0.7;;;;;;;18.28;91.96387;933.8388;;;;
2023/08/27 13:10:37;;;;;;;0.9;0.7;;;;;;;18.4;90.52539;933.8661;;;;
2023/08/27 13:13:02;;;;;;;0.7;0.6;;;;;;;18.4;89.19043;933.8418;;;;
2023/08/27 13:15:30;;;;;;;1;0.4;;;;;;;18.31;88.68262;933.7372;;;;
2023/08/27 13:17:56;;;;;;;1.8;0.6;;;;;;;18.41;89.39941;933.5812;;;;
2023/08/27 13:20:26;;;;;;;0.6;0.6;;;;;;;18.52;87.00293;933.5494;;;;
2023/08/27 13:22:56;;;;;;;1.1;0.5;;;;;;;18.3;87.4834;933.3942;;;;
2023/08/27 13:25:21;;;;;;;0.7;0.5;;;;;;;18.45;87.82813;933.3248;;;;
2023/08/27 13:27:48;;;;;;;0.9;0.6;;;;;;;18.69;88.06055;933.2725;;;;
2023/08/27 13:30:14;;;;;;;0.6;0.3;;;;;;;18.92;85.52344;933.264;;;;
2023/08/27 13:32:42;;;;;;;1.1;0.7;;;;;;;18.87;84.32617;933.093;;;;
2023/08/27 13:35:07;;;;;;;1;0.9;;;;;;;18.98;82.21875;933.0387;;;;
2023/08/27 13:37:34;;;;;;;0.9;0.6;;;;;;;19.14;84.63379;933.0349;;;;
2023/08/27 13:39:59;;;;;;;0.7;0.6;;;;;;;19.52;83.75098;933.007;;;;
2023/08/27 13:42:26;;;;;;;2.1;0.7;;;;;;;20.04;80.99219;932.8907;;;;
2023/08/27 13:44:51;;;;;;;0.7;0.5;;;;;;;20.15;79.44922;932.856;;;;
2023/08/27 13:47:18;;;;;;;0.5;0.4;;;;;;;20.68;76.36523;932.8125;;;;
2023/08/27 13:49:43;;;;;;;0.5;0.5;;;;;;;20.97;74.92969;932.7053;;;;
2023/08/27 13:52:11;;;;;;;0.3;0.3;;;;;;;19.94;76.51563;932.6016;;;;
2023/08/27 13:56:34;;;;;;;0.5;0.4;;;;;;;20.45;75.82031;932.5137;;;;
2023/08/27 13:58:59;;;;;;;0.4;0.4;;;;;;;20.61;75.83691;932.426;;;;
2023/08/27 14:01:25;;;;;;;0.3;0.3;;;;;;;20.55;76.84375;932.4702;;;;
2023/08/27 14:03:50;;;;;;;0.6;0.5;;;;;;;21.2;77.38965;932.4779;;;;
2023/08/27 14:06:15;;;;;;;0.6;0.6;;;;;;;21.52;76.12305;932.4167;;;;
2023/08/27 14:08:44;;;;;;;0.7;0.7;;;;;;;21.78;74.16406;932.437;;;;
2023/08/27 14:11:07;;;;;;;0.5;0.5;;;;;;;21.59;74.33105;932.412;;;;
2023/08/27 14:13:32;;;;;;;0.7;0.6;;;;;;;21.01;72.28125;932.4584;;;;
2023/08/27 14:15:57;;;;;;;0.4;0.4;;;;;;;21.19;72.89746;932.4238;;;;
2023/08/27 14:18:26;;;;;;;0.5;0.4;;;;;;;21.13;73.68066;932.3478;;;;
2023/08/27 14:20:51;;;;;;;0.5;0.5;;;;;;;21.55;70.87109;932.2731;;;;
2023/08/27 14:23:20;;;;;;;0.5;0.3;;;;;;;21.67;69.44922;932.1978;;;;
2023/08/27 14:25:44;;;;;;;0.4;0.4;;;;;;;21.65;71.46094;932.106;;;;
2023/08/27 14:28:11;;;;;;;0.4;0.4;;;;;;;21.88;68.05273;932.1783;;;;
2023/08/27 14:30:36;;;;;;;0.6;0.6;;;;;;;22.05;69.22754;932.2484;;;;
2023/08/27 14:33:04;;;;;;;0.5;0.5;;;;;;;22.29;70.75586;932.3309;;;;
2023/08/27 14:35:30;;;;;;;0.8;0.7;;;;;;;21.95;67.73535;932.2498;;;;
2023/08/27 14:37:58;;;;;;;0.4;0.4;;;;;;;21.79;70.37012;932.2712;;;;
2023/08/27 14:40:23;;;;;;;0.6;0.6;;;;;;;21.14;69.48438;932.2729;;;;
2023/08/27 14:42:49;;;;;;;1.2;0.5;;;;;;;21.04;70.98926;932.2169;;;;
2023/08/27 14:45:14;;;;;;;0.4;0.4;;;;;;;21.14;73.07422;932.2115;;;;
2023/08/27 14:47:43;;;;;;;0.7;0.6;;;;;;;20.75;77.1709;932.2012;;;;
2023/08/27 14:50:18;;;;;;;0.5;0.5;;;;;;;20.55;77.96582;932.1861;;;;
2023/08/27 14:52:40;;;;;;;1;0.6;;;;;;;20.66;76.4541;932.2009;;;;
2023/08/27 14:55:07;;;;;;;0.4;0.4;;;;;;;20.07;78.3125;932.2576;;;;